sensor_id;sensor_type;location;lat;lon;timestamp;P1;durP1;ratioP1;P2;durP2;ratioP2
20124;SDS011;10223;50.862;4.360;2022-10-19T00:00:00;11.07;;;4.50;;
20124;SDS011;10223;50.862;4.360;2022-10-19T00:02:27;13.83;;;5.33;;
20124;SDS011;10223;50.862;4.360;2022-10-19T00:04:53;14.20;;;5.37;;
20124;SDS011;10223;50.862;4.360;2022-10-19T00:07:20;18.07;;;6.47;;
20124;SDS011;10223;50.862;4.360;2022-10-19T00:09:47;18.83;;;6.50;;
20124;SDS011;10223;50.862;4.360;2022-10-19T00:12:15;15.27;;;5.40;;
20124;SDS011;10223;50.862;4.360;2022-10-19T00:14:42;19.57;;;6.97;;
20124;SDS011;10223;50.862;4.360;2022-10-19T00:17:09;17.77;;;6.47;;
20124;SDS011;10223;50.862;4.360;2022-10-19T00:19:36;14.97;;;6.10;;
20124;SDS011;10223;50.862;4.360;2022-10-19T00:22:03;13.53;;;5.07;;
20124;SDS011;10223;50.862;4.360;2022-10-19T00:24:30;14.33;;;4.67;;
20124;SDS011;10223;50.862;4.360;2022-10-19T00:26:57;14.27;;;4.80;;
20124;SDS011;10223;50.862;4.360;2022-10-19T00:29:25;11.77;;;5.37;;
20124;SDS011;10223;50.862;4.360;2022-10-19T00:31:52;19.47;;;6.37;;
20124;SDS011;10223;50.862;4.360;2022-10-19T00:34:19;16.77;;;6.33;;
20124;SDS011;10223;50.862;4.360;2022-10-19T00:36:45;17.43;;;5.57;;
20124;SDS011;10223;50.862;4.360;2022-10-19T00:39:13;12.93;;;4.77;;
20124;SDS011;10223;50.862;4.360;2022-10-19T00:41:42;14.73;;;3.83;;
20124;SDS011;10223;50.862;4.360;2022-10-19T00:47:16;14.80;;;4.77;;
20124;SDS011;10223;50.862;4.360;2022-10-19T00:49:48;13.93;;;4.20;;
20124;SDS011;10223;50.862;4.360;2022-10-19T00:52:17;12.63;;;4.10;;
20124;SDS011;10223;50.862;4.360;2022-10-19T00:54:47;12.10;;;4.67;;
20124;SDS011;10223;50.862;4.360;2022-10-19T00:57:15;12.63;;;4.37;;
20124;SDS011;10223;50.862;4.360;2022-10-19T00:59:43;14.03;;;4.00;;
20124;SDS011;10223;50.862;4.360;2022-10-19T01:02:11;15.30;;;4.60;;
20124;SDS011;10223;50.862;4.360;2022-10-19T01:04:41;14.93;;;4.73;;
20124;SDS011;10223;50.862;4.360;2022-10-19T01:07:11;16.10;;;4.83;;
20124;SDS011;10223;50.862;4.360;2022-10-19T01:09:38;15.83;;;4.33;;
20124;SDS011;10223;50.862;4.360;2022-10-19T01:12:06;10.50;;;4.30;;
20124;SDS011;10223;50.862;4.360;2022-10-19T01:14:41;13.30;;;4.00;;
20124;SDS011;10223;50.862;4.360;2022-10-19T01:17:21;12.73;;;4.27;;
20124;SDS011;10223;50.862;4.360;2022-10-19T01:26:18;13.70;;;4.13;;
20124;SDS011;10223;50.862;4.360;2022-10-19T01:29:02;16.30;;;5.63;;
20124;SDS011;10223;50.862;4.360;2022-10-19T01:31:39;10.50;;;3.97;;
20124;SDS011;10223;50.862;4.360;2022-10-19T01:34:11;11.30;;;4.00;;
20124;SDS011;10223;50.862;4.360;2022-10-19T01:36:42;15.00;;;4.20;;
20124;SDS011;10223;50.862;4.360;2022-10-19T01:39:15;10.63;;;3.60;;
20124;SDS011;10223;50.862;4.360;2022-10-19T01:41:48;14.17;;;5.03;;
20124;SDS011;10223;50.862;4.360;2022-10-19T01:44:24;11.03;;;3.67;;
20124;SDS011;10223;50.862;4.360;2022-10-19T01:46:56;10.23;;;3.90;;
20124;SDS011;10223;50.862;4.360;2022-10-19T01:49:28;14.13;;;3.53;;
20124;SDS011;10223;50.862;4.360;2022-10-19T01:52:01;15.17;;;3.97;;
20124;SDS011;10223;50.862;4.360;2022-10-19T01:54:31;11.00;;;3.83;;
20124;SDS011;10223;50.862;4.360;2022-10-19T01:57:01;12.77;;;4.23;;
20124;SDS011;10223;50.862;4.360;2022-10-19T01:59:32;9.27;;;3.30;;
20124;SDS011;10223;50.862;4.360;2022-10-19T02:02:01;14.50;;;4.13;;
20124;SDS011;10223;50.862;4.360;2022-10-19T02:04:30;15.30;;;4.17;;
20124;SDS011;10223;50.862;4.360;2022-10-19T02:06:58;13.90;;;4.20;;
20124;SDS011;10223;50.862;4.360;2022-10-19T02:09:27;16.80;;;4.00;;
20124;SDS011;10223;50.862;4.360;2022-10-19T02:11:55;13.33;;;4.17;;
20124;SDS011;10223;50.862;4.360;2022-10-19T02:14:26;8.60;;;3.93;;
20124;SDS011;10223;50.862;4.360;2022-10-19T02:16:58;14.00;;;4.00;;
20124;SDS011;10223;50.862;4.360;2022-10-19T02:19:30;13.10;;;4.53;;
20124;SDS011;10223;50.862;4.360;2022-10-19T02:21:57;12.07;;;4.60;;
20124;SDS011;10223;50.862;4.360;2022-10-19T02:24:24;15.87;;;4.30;;
20124;SDS011;10223;50.862;4.360;2022-10-19T02:26:51;14.67;;;4.47;;
20124;SDS011;10223;50.862;4.360;2022-10-19T02:29:19;12.77;;;4.13;;
20124;SDS011;10223;50.862;4.360;2022-10-19T02:31:47;14.20;;;4.87;;
20124;SDS011;10223;50.862;4.360;2022-10-19T02:34:15;12.33;;;5.17;;
20124;SDS011;10223;50.862;4.360;2022-10-19T02:36:42;14.70;;;4.80;;
20124;SDS011;10223;50.862;4.360;2022-10-19T02:39:09;14.13;;;5.10;;
20124;SDS011;10223;50.862;4.360;2022-10-19T02:41:37;11.53;;;4.13;;
20124;SDS011;10223;50.862;4.360;2022-10-19T02:44:12;10.87;;;4.33;;
20124;SDS011;10223;50.862;4.360;2022-10-19T02:46:44;14.80;;;4.50;;
20124;SDS011;10223;50.862;4.360;2022-10-19T02:49:16;12.07;;;4.30;;
20124;SDS011;10223;50.862;4.360;2022-10-19T02:51:54;13.47;;;3.90;;
20124;SDS011;10223;50.862;4.360;2022-10-19T02:54:23;10.77;;;4.40;;
20124;SDS011;10223;50.862;4.360;2022-10-19T02:56:50;16.67;;;4.03;;
20124;SDS011;10223;50.862;4.360;2022-10-19T02:59:17;10.50;;;3.90;;
20124;SDS011;10223;50.862;4.360;2022-10-19T03:01:44;13.27;;;4.40;;
20124;SDS011;10223;50.862;4.360;2022-10-19T03:04:11;14.50;;;4.40;;
20124;SDS011;10223;50.862;4.360;2022-10-19T03:06:39;11.50;;;4.77;;
20124;SDS011;10223;50.862;4.360;2022-10-19T03:09:06;13.77;;;4.20;;
20124;SDS011;10223;50.862;4.360;2022-10-19T03:11:33;15.80;;;4.87;;
20124;SDS011;10223;50.862;4.360;2022-10-19T03:14:00;14.07;;;5.03;;
20124;SDS011;10223;50.862;4.360;2022-10-19T03:16:27;13.47;;;4.57;;
20124;SDS011;10223;50.862;4.360;2022-10-19T03:18:54;19.53;;;5.07;;
20124;SDS011;10223;50.862;4.360;2022-10-19T03:21:20;18.17;;;5.37;;
20124;SDS011;10223;50.862;4.360;2022-10-19T03:23:49;10.47;;;4.20;;
20124;SDS011;10223;50.862;4.360;2022-10-19T03:26:16;15.97;;;5.70;;
20124;SDS011;10223;50.862;4.360;2022-10-19T03:28:43;10.73;;;4.80;;
20124;SDS011;10223;50.862;4.360;2022-10-19T03:31:10;18.37;;;4.93;;
20124;SDS011;10223;50.862;4.360;2022-10-19T03:33:37;14.40;;;4.53;;
20124;SDS011;10223;50.862;4.360;2022-10-19T03:36:14;14.23;;;5.07;;
20124;SDS011;10223;50.862;4.360;2022-10-19T03:38:42;17.20;;;5.37;;
20124;SDS011;10223;50.862;4.360;2022-10-19T03:41:10;17.63;;;5.33;;
20124;SDS011;10223;50.862;4.360;2022-10-19T03:43:37;13.47;;;4.87;;
20124;SDS011;10223;50.862;4.360;2022-10-19T03:46:05;16.13;;;6.00;;
20124;SDS011;10223;50.862;4.360;2022-10-19T03:48:32;15.93;;;5.40;;
20124;SDS011;10223;50.862;4.360;2022-10-19T03:50:59;13.40;;;5.40;;
20124;SDS011;10223;50.862;4.360;2022-10-19T03:53:26;18.37;;;5.40;;
20124;SDS011;10223;50.862;4.360;2022-10-19T03:55:59;19.37;;;5.37;;
20124;SDS011;10223;50.862;4.360;2022-10-19T03:58:31;15.77;;;5.30;;
20124;SDS011;10223;50.862;4.360;2022-10-19T04:00:59;18.53;;;6.03;;
20124;SDS011;10223;50.862;4.360;2022-10-19T04:03:26;16.20;;;5.97;;
20124;SDS011;10223;50.862;4.360;2022-10-19T04:05:59;18.27;;;6.07;;
20124;SDS011;10223;50.862;4.360;2022-10-19T04:08:27;15.67;;;6.13;;
20124;SDS011;10223;50.862;4.360;2022-10-19T04:10:57;15.10;;;5.17;;
20124;SDS011;10223;50.862;4.360;2022-10-19T04:13:25;20.97;;;6.23;;
20124;SDS011;10223;50.862;4.360;2022-10-19T04:15:53;21.73;;;6.07;;
20124;SDS011;10223;50.862;4.360;2022-10-19T04:18:20;22.00;;;6.23;;
20124;SDS011;10223;50.862;4.360;2022-10-19T04:20:47;15.80;;;6.50;;
20124;SDS011;10223;50.862;4.360;2022-10-19T04:23:14;23.60;;;6.13;;
20124;SDS011;10223;50.862;4.360;2022-10-19T04:25:41;22.40;;;6.80;;
20124;SDS011;10223;50.862;4.360;2022-10-19T04:28:08;18.50;;;6.33;;
20124;SDS011;10223;50.862;4.360;2022-10-19T04:30:34;20.73;;;7.23;;
20124;SDS011;10223;50.862;4.360;2022-10-19T04:33:03;20.27;;;6.00;;
20124;SDS011;10223;50.862;4.360;2022-10-19T04:35:29;19.40;;;6.43;;
20124;SDS011;10223;50.862;4.360;2022-10-19T04:37:57;16.77;;;6.47;;
20124;SDS011;10223;50.862;4.360;2022-10-19T04:40:24;17.30;;;6.63;;
20124;SDS011;10223;50.862;4.360;2022-10-19T04:42:51;17.37;;;7.10;;
20124;SDS011;10223;50.862;4.360;2022-10-19T04:45:18;15.43;;;6.57;;
20124;SDS011;10223;50.862;4.360;2022-10-19T04:47:45;18.90;;;6.47;;
20124;SDS011;10223;50.862;4.360;2022-10-19T04:50:13;18.37;;;7.03;;
20124;SDS011;10223;50.862;4.360;2022-10-19T04:52:40;19.57;;;7.03;;
20124;SDS011;10223;50.862;4.360;2022-10-19T04:55:09;15.03;;;6.57;;
20124;SDS011;10223;50.862;4.360;2022-10-19T04:57:36;17.43;;;7.17;;
20124;SDS011;10223;50.862;4.360;2022-10-19T05:00:03;21.23;;;7.43;;
20124;SDS011;10223;50.862;4.360;2022-10-19T05:02:31;26.37;;;7.40;;
20124;SDS011;10223;50.862;4.360;2022-10-19T05:04:58;17.20;;;7.20;;
20124;SDS011;10223;50.862;4.360;2022-10-19T05:07:26;18.90;;;7.27;;
20124;SDS011;10223;50.862;4.360;2022-10-19T05:09:53;17.17;;;7.40;;
20124;SDS011;10223;50.862;4.360;2022-10-19T05:12:20;15.77;;;7.20;;
20124;SDS011;10223;50.862;4.360;2022-10-19T05:14:47;16.10;;;7.63;;
20124;SDS011;10223;50.862;4.360;2022-10-19T05:17:13;15.73;;;6.83;;
20124;SDS011;10223;50.862;4.360;2022-10-19T05:19:40;18.50;;;7.00;;
20124;SDS011;10223;50.862;4.360;2022-10-19T05:22:08;19.03;;;7.60;;
20124;SDS011;10223;50.862;4.360;2022-10-19T05:24:36;16.60;;;6.80;;
20124;SDS011;10223;50.862;4.360;2022-10-19T05:27:03;17.03;;;6.30;;
20124;SDS011;10223;50.862;4.360;2022-10-19T05:29:30;21.50;;;8.00;;
20124;SDS011;10223;50.862;4.360;2022-10-19T05:31:57;23.80;;;8.63;;
20124;SDS011;10223;50.862;4.360;2022-10-19T05:34:24;18.90;;;8.00;;
20124;SDS011;10223;50.862;4.360;2022-10-19T05:36:51;27.87;;;8.30;;
20124;SDS011;10223;50.862;4.360;2022-10-19T05:39:20;15.60;;;7.07;;
20124;SDS011;10223;50.862;4.360;2022-10-19T05:41:48;21.50;;;8.33;;
20124;SDS011;10223;50.862;4.360;2022-10-19T05:44:16;17.00;;;7.53;;
20124;SDS011;10223;50.862;4.360;2022-10-19T05:46:44;22.47;;;8.10;;
20124;SDS011;10223;50.862;4.360;2022-10-19T05:49:12;19.50;;;7.77;;
20124;SDS011;10223;50.862;4.360;2022-10-19T05:51:39;19.43;;;7.83;;
20124;SDS011;10223;50.862;4.360;2022-10-19T05:54:06;23.13;;;7.90;;
20124;SDS011;10223;50.862;4.360;2022-10-19T05:56:33;24.23;;;7.90;;
20124;SDS011;10223;50.862;4.360;2022-10-19T05:59:03;26.03;;;8.93;;
20124;SDS011;10223;50.862;4.360;2022-10-19T06:01:31;18.47;;;8.40;;
20124;SDS011;10223;50.862;4.360;2022-10-19T06:03:59;21.10;;;8.70;;
20124;SDS011;10223;50.862;4.360;2022-10-19T06:06:27;17.27;;;8.30;;
20124;SDS011;10223;50.862;4.360;2022-10-19T06:08:55;19.33;;;8.17;;
20124;SDS011;10223;50.862;4.360;2022-10-19T06:11:24;18.47;;;8.57;;
20124;SDS011;10223;50.862;4.360;2022-10-19T06:13:52;19.93;;;8.63;;
20124;SDS011;10223;50.862;4.360;2022-10-19T06:16:23;26.03;;;9.07;;
20124;SDS011;10223;50.862;4.360;2022-10-19T06:18:51;22.97;;;8.87;;
20124;SDS011;10223;50.862;4.360;2022-10-19T06:21:20;21.50;;;9.30;;
20124;SDS011;10223;50.862;4.360;2022-10-19T06:23:49;25.40;;;8.47;;
20124;SDS011;10223;50.862;4.360;2022-10-19T06:26:16;21.50;;;8.20;;
20124;SDS011;10223;50.862;4.360;2022-10-19T06:28:43;25.33;;;9.13;;
20124;SDS011;10223;50.862;4.360;2022-10-19T06:31:10;22.60;;;9.07;;
20124;SDS011;10223;50.862;4.360;2022-10-19T06:33:40;25.40;;;9.33;;
20124;SDS011;10223;50.862;4.360;2022-10-19T06:36:09;18.60;;;9.17;;
20124;SDS011;10223;50.862;4.360;2022-10-19T06:38:38;20.60;;;9.33;;
20124;SDS011;10223;50.862;4.360;2022-10-19T06:41:07;17.23;;;8.57;;
20124;SDS011;10223;50.862;4.360;2022-10-19T06:43:35;19.03;;;9.43;;
20124;SDS011;10223;50.862;4.360;2022-10-19T06:46:03;17.07;;;8.47;;
20124;SDS011;10223;50.862;4.360;2022-10-19T06:48:31;16.13;;;7.87;;
20124;SDS011;10223;50.862;4.360;2022-10-19T06:51:00;21.17;;;8.60;;
20124;SDS011;10223;50.862;4.360;2022-10-19T06:53:28;19.20;;;7.77;;
20124;SDS011;10223;50.862;4.360;2022-10-19T06:55:58;20.83;;;8.33;;
20124;SDS011;10223;50.862;4.360;2022-10-19T06:58:26;18.57;;;8.47;;
20124;SDS011;10223;50.862;4.360;2022-10-19T07:00:53;20.17;;;7.97;;
20124;SDS011;10223;50.862;4.360;2022-10-19T07:03:21;23.20;;;8.37;;
20124;SDS011;10223;50.862;4.360;2022-10-19T07:05:52;18.00;;;8.00;;
20124;SDS011;10223;50.862;4.360;2022-10-19T07:08:21;24.77;;;7.97;;
20124;SDS011;10223;50.862;4.360;2022-10-19T07:10:49;22.43;;;8.50;;
20124;SDS011;10223;50.862;4.360;2022-10-19T07:13:16;17.27;;;8.00;;
20124;SDS011;10223;50.862;4.360;2022-10-19T07:15:43;21.60;;;7.77;;
20124;SDS011;10223;50.862;4.360;2022-10-19T07:18:09;12.87;;;6.87;;
20124;SDS011;10223;50.862;4.360;2022-10-19T07:20:36;16.13;;;7.07;;
20124;SDS011;10223;50.862;4.360;2022-10-19T07:23:03;17.47;;;7.13;;
20124;SDS011;10223;50.862;4.360;2022-10-19T07:25:32;17.87;;;7.70;;
20124;SDS011;10223;50.862;4.360;2022-10-19T07:27:59;21.90;;;7.87;;
20124;SDS011;10223;50.862;4.360;2022-10-19T07:30:25;14.17;;;6.73;;
20124;SDS011;10223;50.862;4.360;2022-10-19T07:32:52;24.07;;;6.43;;
20124;SDS011;10223;50.862;4.360;2022-10-19T07:35:19;16.37;;;6.53;;
20124;SDS011;10223;50.862;4.360;2022-10-19T07:37:46;18.20;;;7.03;;
20124;SDS011;10223;50.862;4.360;2022-10-19T07:40:13;17.70;;;7.43;;
20124;SDS011;10223;50.862;4.360;2022-10-19T07:42:41;14.43;;;6.57;;
20124;SDS011;10223;50.862;4.360;2022-10-19T07:45:08;17.40;;;6.50;;
20124;SDS011;10223;50.862;4.360;2022-10-19T07:47:36;20.00;;;6.87;;
20124;SDS011;10223;50.862;4.360;2022-10-19T07:50:03;19.47;;;7.37;;
20124;SDS011;10223;50.862;4.360;2022-10-19T07:52:30;21.40;;;6.50;;
20124;SDS011;10223;50.862;4.360;2022-10-19T07:54:57;22.10;;;7.03;;
20124;SDS011;10223;50.862;4.360;2022-10-19T07:57:24;24.87;;;7.40;;
20124;SDS011;10223;50.862;4.360;2022-10-19T07:59:53;14.97;;;6.27;;
20124;SDS011;10223;50.862;4.360;2022-10-19T08:02:19;17.60;;;7.30;;
20124;SDS011;10223;50.862;4.360;2022-10-19T08:04:46;14.37;;;6.47;;
20124;SDS011;10223;50.862;4.360;2022-10-19T08:07:13;20.83;;;6.93;;
20124;SDS011;10223;50.862;4.360;2022-10-19T08:09:40;21.33;;;7.30;;
20124;SDS011;10223;50.862;4.360;2022-10-19T08:12:07;17.77;;;6.63;;
20124;SDS011;10223;50.862;4.360;2022-10-19T08:14:34;13.90;;;6.67;;
20124;SDS011;10223;50.862;4.360;2022-10-19T08:17:02;16.77;;;7.23;;
20124;SDS011;10223;50.862;4.360;2022-10-19T08:19:29;19.90;;;9.13;;
20124;SDS011;10223;50.862;4.360;2022-10-19T08:21:56;19.83;;;7.20;;
20124;SDS011;10223;50.862;4.360;2022-10-19T08:24:23;19.13;;;7.70;;
20124;SDS011;10223;50.862;4.360;2022-10-19T08:26:50;15.23;;;6.80;;
20124;SDS011;10223;50.862;4.360;2022-10-19T08:29:18;24.57;;;7.30;;
20124;SDS011;10223;50.862;4.360;2022-10-19T08:31:46;12.27;;;6.80;;
20124;SDS011;10223;50.862;4.360;2022-10-19T08:34:15;14.77;;;6.93;;
20124;SDS011;10223;50.862;4.360;2022-10-19T08:36:42;20.60;;;7.33;;
20124;SDS011;10223;50.862;4.360;2022-10-19T08:39:10;24.97;;;8.53;;
20124;SDS011;10223;50.862;4.360;2022-10-19T08:41:42;17.50;;;7.47;;
20124;SDS011;10223;50.862;4.360;2022-10-19T08:44:26;18.47;;;8.20;;
20124;SDS011;10223;50.862;4.360;2022-10-19T08:47:13;12.73;;;7.73;;
20124;SDS011;10223;50.862;4.360;2022-10-19T08:49:49;16.93;;;7.73;;
20124;SDS011;10223;50.862;4.360;2022-10-19T08:52:18;17.70;;;7.93;;
20124;SDS011;10223;50.862;4.360;2022-10-19T08:54:48;19.80;;;8.00;;
20124;SDS011;10223;50.862;4.360;2022-10-19T08:57:24;23.13;;;8.13;;
20124;SDS011;10223;50.862;4.360;2022-10-19T09:00:07;16.70;;;7.13;;
20124;SDS011;10223;50.862;4.360;2022-10-19T09:02:45;16.73;;;7.20;;
20124;SDS011;10223;50.862;4.360;2022-10-19T09:05:21;18.70;;;7.50;;
20124;SDS011;10223;50.862;4.360;2022-10-19T09:07:55;15.05;;;7.18;;
20124;SDS011;10223;50.862;4.360;2022-10-19T09:10:24;20.75;;;7.80;;
20124;SDS011;10223;50.862;4.360;2022-10-19T09:12:55;19.02;;;8.13;;
20124;SDS011;10223;50.862;4.360;2022-10-19T09:15:25;18.98;;;8.20;;
20124;SDS011;10223;50.862;4.360;2022-10-19T09:17:57;18.20;;;7.72;;
20124;SDS011;10223;50.862;4.360;2022-10-19T09:20:28;20.85;;;7.50;;
20124;SDS011;10223;50.862;4.360;2022-10-19T09:23:02;11.80;;;6.45;;
20124;SDS011;10223;50.862;4.360;2022-10-19T09:25:32;22.90;;;6.90;;
20124;SDS011;10223;50.862;4.360;2022-10-19T09:28:05;18.33;;;7.10;;
20124;SDS011;10223;50.862;4.360;2022-10-19T09:30:43;18.63;;;9.15;;
20124;SDS011;10223;50.862;4.360;2022-10-19T09:33:14;19.08;;;7.35;;
20124;SDS011;10223;50.862;4.360;2022-10-19T09:35:47;18.65;;;6.95;;
20124;SDS011;10223;50.862;4.360;2022-10-19T09:38:15;17.45;;;7.30;;
20124;SDS011;10223;50.862;4.360;2022-10-19T09:40:43;16.88;;;8.20;;
20124;SDS011;10223;50.862;4.360;2022-10-19T09:43:11;19.27;;;7.32;;
20124;SDS011;10223;50.862;4.360;2022-10-19T09:45:48;18.85;;;7.88;;
20124;SDS011;10223;50.862;4.360;2022-10-19T09:48:19;21.95;;;9.63;;
20124;SDS011;10223;50.862;4.360;2022-10-19T09:50:54;16.55;;;7.22;;
20124;SDS011;10223;50.862;4.360;2022-10-19T09:53:23;21.73;;;9.32;;
20124;SDS011;10223;50.862;4.360;2022-10-19T09:55:52;12.05;;;6.40;;
20124;SDS011;10223;50.862;4.360;2022-10-19T09:58:25;19.60;;;7.28;;
20124;SDS011;10223;50.862;4.360;2022-10-19T10:00:54;14.07;;;7.18;;
20124;SDS011;10223;50.862;4.360;2022-10-19T10:03:23;18.90;;;7.25;;
20124;SDS011;10223;50.862;4.360;2022-10-19T10:05:53;11.32;;;5.70;;
20124;SDS011;10223;50.862;4.360;2022-10-19T10:08:23;20.17;;;6.93;;
20124;SDS011;10223;50.862;4.360;2022-10-19T10:10:54;18.45;;;7.38;;
20124;SDS011;10223;50.862;4.360;2022-10-19T10:13:29;13.93;;;6.78;;
20124;SDS011;10223;50.862;4.360;2022-10-19T10:15:57;18.85;;;7.50;;
20124;SDS011;10223;50.862;4.360;2022-10-19T10:18:26;14.30;;;7.78;;
20124;SDS011;10223;50.862;4.360;2022-10-19T10:20:57;18.75;;;8.35;;
20124;SDS011;10223;50.862;4.360;2022-10-19T10:23:26;18.90;;;7.95;;
20124;SDS011;10223;50.862;4.360;2022-10-19T10:25:55;24.50;;;8.35;;
20124;SDS011;10223;50.862;4.360;2022-10-19T10:28:24;18.02;;;8.13;;
20124;SDS011;10223;50.862;4.360;2022-10-19T10:30:52;19.40;;;8.80;;
20124;SDS011;10223;50.862;4.360;2022-10-19T10:33:25;18.17;;;7.53;;
20124;SDS011;10223;50.862;4.360;2022-10-19T10:35:54;16.75;;;7.18;;
20124;SDS011;10223;50.862;4.360;2022-10-19T10:38:29;15.52;;;7.65;;
20124;SDS011;10223;50.862;4.360;2022-10-19T10:40:59;23.52;;;6.93;;
20124;SDS011;10223;50.862;4.360;2022-10-19T10:43:29;22.95;;;7.65;;
20124;SDS011;10223;50.862;4.360;2022-10-19T10:45:59;16.55;;;7.47;;
20124;SDS011;10223;50.862;4.360;2022-10-19T10:48:32;14.30;;;7.85;;
20124;SDS011;10223;50.862;4.360;2022-10-19T10:51:06;20.55;;;8.60;;
20124;SDS011;10223;50.862;4.360;2022-10-19T10:53:36;19.10;;;9.18;;
20124;SDS011;10223;50.862;4.360;2022-10-19T10:56:05;20.73;;;8.27;;
20124;SDS011;10223;50.862;4.360;2022-10-19T10:58:47;18.30;;;7.22;;
20124;SDS011;10223;50.862;4.360;2022-10-19T11:01:19;20.42;;;7.05;;
20124;SDS011;10223;50.862;4.360;2022-10-19T11:03:49;19.08;;;7.55;;
20124;SDS011;10223;50.862;4.360;2022-10-19T11:06:21;17.73;;;7.28;;
20124;SDS011;10223;50.862;4.360;2022-10-19T11:08:53;16.90;;;6.88;;
20124;SDS011;10223;50.862;4.360;2022-10-19T11:11:29;21.40;;;7.82;;
20124;SDS011;10223;50.862;4.360;2022-10-19T11:14:03;17.15;;;6.68;;
20124;SDS011;10223;50.862;4.360;2022-10-19T11:16:51;21.33;;;7.85;;
20124;SDS011;10223;50.862;4.360;2022-10-19T11:19:21;18.70;;;8.43;;
20124;SDS011;10223;50.862;4.360;2022-10-19T11:21:55;18.20;;;7.28;;
20124;SDS011;10223;50.862;4.360;2022-10-19T11:24:31;19.52;;;7.53;;
20124;SDS011;10223;50.862;4.360;2022-10-19T11:27:13;13.13;;;7.43;;
20124;SDS011;10223;50.862;4.360;2022-10-19T11:30:00;21.35;;;8.98;;
20124;SDS011;10223;50.862;4.360;2022-10-19T11:32:34;17.25;;;7.68;;
20124;SDS011;10223;50.862;4.360;2022-10-19T11:35:22;21.17;;;8.25;;
20124;SDS011;10223;50.862;4.360;2022-10-19T11:38:20;17.85;;;7.53;;
20124;SDS011;10223;50.862;4.360;2022-10-19T11:41:06;13.82;;;7.05;;
20124;SDS011;10223;50.862;4.360;2022-10-19T11:43:54;19.77;;;7.75;;
20124;SDS011;10223;50.862;4.360;2022-10-19T11:46:29;18.65;;;7.57;;
20124;SDS011;10223;50.862;4.360;2022-10-19T11:49:08;15.73;;;6.85;;
20124;SDS011;10223;50.862;4.360;2022-10-19T11:51:48;16.67;;;7.47;;
20124;SDS011;10223;50.862;4.360;2022-10-19T11:54:26;13.75;;;7.25;;
20124;SDS011;10223;50.862;4.360;2022-10-19T11:57:08;20.23;;;6.50;;
20124;SDS011;10223;50.862;4.360;2022-10-19T11:59:47;15.02;;;6.70;;
20124;SDS011;10223;50.862;4.360;2022-10-19T12:02:33;19.45;;;8.13;;
20124;SDS011;10223;50.862;4.360;2022-10-19T12:05:21;15.88;;;7.05;;
20124;SDS011;10223;50.862;4.360;2022-10-19T12:07:58;18.58;;;7.60;;
20124;SDS011;10223;50.862;4.360;2022-10-19T12:10:37;14.68;;;8.20;;
20124;SDS011;10223;50.862;4.360;2022-10-19T12:13:11;18.27;;;8.02;;
20124;SDS011;10223;50.862;4.360;2022-10-19T12:15:41;21.83;;;8.65;;
20124;SDS011;10223;50.862;4.360;2022-10-19T12:18:11;18.52;;;8.48;;
20124;SDS011;10223;50.862;4.360;2022-10-19T12:20:42;19.23;;;7.93;;
20124;SDS011;10223;50.862;4.360;2022-10-19T12:23:19;19.20;;;8.13;;
20124;SDS011;10223;50.862;4.360;2022-10-19T12:25:51;16.88;;;8.05;;
20124;SDS011;10223;50.862;4.360;2022-10-19T12:28:20;16.33;;;7.68;;
20124;SDS011;10223;50.862;4.360;2022-10-19T12:30:51;22.40;;;9.50;;
20124;SDS011;10223;50.862;4.360;2022-10-19T12:33:21;17.60;;;8.20;;
20124;SDS011;10223;50.862;4.360;2022-10-19T12:36:11;19.80;;;8.25;;
20124;SDS011;10223;50.862;4.360;2022-10-19T12:38:59;16.20;;;6.97;;
20124;SDS011;10223;50.862;4.360;2022-10-19T12:41:35;14.75;;;8.45;;
20124;SDS011;10223;50.862;4.360;2022-10-19T12:44:26;13.75;;;7.80;;
20124;SDS011;10223;50.862;4.360;2022-10-19T12:47:07;21.52;;;8.15;;
20124;SDS011;10223;50.862;4.360;2022-10-19T12:49:43;15.40;;;8.07;;
20124;SDS011;10223;50.862;4.360;2022-10-19T12:52:14;12.57;;;6.80;;
20124;SDS011;10223;50.862;4.360;2022-10-19T12:55:08;19.52;;;7.65;;
20124;SDS011;10223;50.862;4.360;2022-10-19T12:57:38;15.75;;;7.22;;
20124;SDS011;10223;50.862;4.360;2022-10-19T13:00:17;19.08;;;7.32;;
20124;SDS011;10223;50.862;4.360;2022-10-19T13:02:46;19.35;;;7.70;;
20124;SDS011;10223;50.862;4.360;2022-10-19T13:05:22;18.05;;;8.52;;
20124;SDS011;10223;50.862;4.360;2022-10-19T13:07:51;18.35;;;7.22;;
20124;SDS011;10223;50.862;4.360;2022-10-19T13:10:20;16.70;;;8.75;;
20124;SDS011;10223;50.862;4.360;2022-10-19T13:12:51;16.60;;;7.07;;
20124;SDS011;10223;50.862;4.360;2022-10-19T13:28:00;13.23;;;5.78;;
20124;SDS011;10223;50.862;4.360;2022-10-19T13:31:01;15.68;;;6.00;;
20124;SDS011;10223;50.862;4.360;2022-10-19T13:33:48;13.40;;;6.10;;
20124;SDS011;10223;50.862;4.360;2022-10-19T13:36:17;18.30;;;5.70;;
20124;SDS011;10223;50.862;4.360;2022-10-19T13:38:46;13.68;;;5.50;;
20124;SDS011;10223;50.862;4.360;2022-10-19T13:41:43;17.75;;;6.45;;
20124;SDS011;10223;50.862;4.360;2022-10-19T13:44:20;18.73;;;7.28;;
20124;SDS011;10223;50.862;4.360;2022-10-19T13:46:51;20.17;;;7.60;;
20124;SDS011;10223;50.862;4.360;2022-10-19T13:49:36;13.02;;;6.30;;
20124;SDS011;10223;50.862;4.360;2022-10-19T13:52:27;17.25;;;6.60;;
20124;SDS011;10223;50.862;4.360;2022-10-19T13:58:19;16.98;;;6.28;;
20124;SDS011;10223;50.862;4.360;2022-10-19T14:01:17;12.07;;;5.55;;
20124;SDS011;10223;50.862;4.360;2022-10-19T14:06:46;14.00;;;6.55;;
20124;SDS011;10223;50.862;4.360;2022-10-19T14:09:25;18.33;;;6.30;;
20124;SDS011;10223;50.862;4.360;2022-10-19T14:12:14;12.77;;;6.60;;
20124;SDS011;10223;50.862;4.360;2022-10-19T14:14:46;15.05;;;6.28;;
20124;SDS011;10223;50.862;4.360;2022-10-19T14:17:16;13.10;;;5.90;;
20124;SDS011;10223;50.862;4.360;2022-10-19T14:19:45;12.88;;;6.05;;
20124;SDS011;10223;50.862;4.360;2022-10-19T14:22:18;14.90;;;6.57;;
20124;SDS011;10223;50.862;4.360;2022-10-19T14:24:48;16.92;;;8.68;;
20124;SDS011;10223;50.862;4.360;2022-10-19T14:27:16;14.02;;;6.95;;
20124;SDS011;10223;50.862;4.360;2022-10-19T14:29:45;12.13;;;6.78;;
20124;SDS011;10223;50.862;4.360;2022-10-19T14:32:15;12.40;;;7.20;;
20124;SDS011;10223;50.862;4.360;2022-10-19T14:34:45;15.77;;;6.95;;
20124;SDS011;10223;50.862;4.360;2022-10-19T14:37:14;19.23;;;6.65;;
20124;SDS011;10223;50.862;4.360;2022-10-19T14:39:53;17.15;;;7.43;;
20124;SDS011;10223;50.862;4.360;2022-10-19T14:42:23;11.93;;;7.50;;
20124;SDS011;10223;50.862;4.360;2022-10-19T14:45:00;15.93;;;7.68;;
20124;SDS011;10223;50.862;4.360;2022-10-19T14:47:28;16.27;;;7.55;;
20124;SDS011;10223;50.862;4.360;2022-10-19T14:49:55;16.02;;;7.57;;
20124;SDS011;10223;50.862;4.360;2022-10-19T14:52:23;19.80;;;7.32;;
20124;SDS011;10223;50.862;4.360;2022-10-19T14:54:54;14.65;;;7.13;;
20124;SDS011;10223;50.862;4.360;2022-10-19T14:57:23;19.13;;;7.47;;
20124;SDS011;10223;50.862;4.360;2022-10-19T14:59:54;14.85;;;6.97;;
20124;SDS011;10223;50.862;4.360;2022-10-19T15:02:24;15.52;;;7.70;;
20124;SDS011;10223;50.862;4.360;2022-10-19T15:04:55;13.13;;;7.88;;
20124;SDS011;10223;50.862;4.360;2022-10-19T15:07:25;15.18;;;8.65;;
20124;SDS011;10223;50.862;4.360;2022-10-19T15:09:59;19.77;;;8.25;;
20124;SDS011;10223;50.862;4.360;2022-10-19T15:12:32;19.23;;;9.27;;
20124;SDS011;10223;50.862;4.360;2022-10-19T15:15:04;20.85;;;8.73;;
20124;SDS011;10223;50.862;4.360;2022-10-19T15:17:33;15.60;;;9.02;;
20124;SDS011;10223;50.862;4.360;2022-10-19T15:20:03;17.35;;;8.65;;
20124;SDS011;10223;50.862;4.360;2022-10-19T15:22:48;18.40;;;9.80;;
20124;SDS011;10223;50.862;4.360;2022-10-19T15:25:26;19.33;;;9.05;;